createdAt,value
2017-05-28T00:00:27.701Z,1018.77
2017-05-28T00:01:27.734Z,1018.8
2017-05-28T00:02:27.773Z,1018.81
2017-05-28T00:03:27.805Z,1018.71
2017-05-28T00:04:27.850Z,1018.72
2017-05-28T00:05:27.880Z,1018.7
2017-05-28T00:06:27.909Z,1018.68
2017-05-28T00:07:27.945Z,1018.62
2017-05-28T00:08:27.979Z,1018.64
2017-05-28T00:09:28.015Z,1018.6
2017-05-28T00:10:28.054Z,1018.61
2017-05-28T00:11:28.088Z,1018.62
2017-05-28T00:12:28.121Z,1018.61
2017-05-28T00:13:28.157Z,1018.6
2017-05-28T00:14:28.190Z,1018.61
2017-05-28T00:15:28.224Z,1018.58
2017-05-28T00:16:28.263Z,1018.59
2017-05-28T00:17:28.298Z,1018.59
2017-05-28T00:18:28.334Z,1018.64
2017-05-28T00:19:28.370Z,1018.64
2017-05-28T00:20:28.401Z,1018.68
2017-05-28T00:21:28.439Z,1018.61
2017-05-28T00:22:28.474Z,1018.63
2017-05-28T00:23:28.507Z,1018.62
2017-05-28T00:24:28.545Z,1018.63
2017-05-28T00:25:28.581Z,1018.63
2017-05-28T00:26:28.613Z,1018.64
2017-05-28T00:27:28.648Z,1018.65
2017-05-28T00:28:28.689Z,1018.63
2017-05-28T00:29:28.719Z,1018.67
2017-05-28T00:30:28.754Z,1018.63
2017-05-28T00:31:28.787Z,1018.64
2017-05-28T00:32:28.824Z,1018.64
2017-05-28T00:33:28.860Z,1018.63
2017-05-28T00:34:28.880Z,1018.64
2017-05-28T00:35:28.932Z,1018.62
2017-05-28T00:36:28.964Z,1018.64
2017-05-28T00:37:29.002Z,1018.63
2017-05-28T00:38:29.035Z,1018.64
2017-05-28T00:39:29.079Z,1018.58
2017-05-28T00:40:29.102Z,1018.6
2017-05-28T00:41:29.142Z,1018.58
2017-05-28T00:42:29.185Z,1018.56
2017-05-28T00:43:29.215Z,1018.53
2017-05-28T00:44:29.251Z,1018.59
2017-05-28T00:45:29.282Z,1018.6
2017-05-28T00:46:29.321Z,1018.61
2017-05-28T00:47:29.353Z,1018.59
2017-05-28T00:48:29.394Z,1018.6
2017-05-28T00:49:29.427Z,1018.6
2017-05-28T00:50:29.459Z,1018.6
2017-05-28T00:51:29.496Z,1018.57
2017-05-28T00:52:29.521Z,1018.55
2017-05-28T00:53:29.565Z,1018.55
2017-05-28T00:54:29.603Z,1018.54
2017-05-28T00:55:29.643Z,1018.56
2017-05-28T00:56:29.659Z,1018.55
2017-05-28T00:57:29.705Z,1018.52
2017-05-28T00:58:29.746Z,1018.55
2017-05-28T00:59:29.773Z,1018.53
2017-05-28T01:00:29.811Z,1018.53
2017-05-28T01:01:29.849Z,1018.51
2017-05-28T01:02:29.905Z,1018.47
2017-05-28T01:03:29.918Z,1018.51
2017-05-28T01:04:29.955Z,1018.5
2017-05-28T01:05:29.988Z,1018.47
2017-05-28T01:06:30.020Z,1018.49
2017-05-28T01:07:30.059Z,1018.53
2017-05-28T01:08:30.093Z,1018.53
2017-05-28T01:09:30.126Z,1018.55
2017-05-28T01:10:30.161Z,1018.51
2017-05-28T01:11:30.204Z,1018.56
2017-05-28T01:12:30.234Z,1018.52
2017-05-28T01:13:30.295Z,1018.56
2017-05-28T01:14:30.304Z,1018.55
2017-05-28T01:15:30.336Z,1018.46
2017-05-28T01:16:30.359Z,1018.46
2017-05-28T01:17:30.407Z,1018.44
2017-05-28T01:18:30.444Z,1018.42
2017-05-28T01:19:30.480Z,1018.39
2017-05-28T01:20:30.512Z,1018.4
2017-05-28T01:21:30.545Z,1018.4
2017-05-28T01:22:30.582Z,1018.42
2017-05-28T01:23:30.615Z,1018.39
2017-05-28T01:24:30.648Z,1018.43
2017-05-28T01:25:30.684Z,1018.41
2017-05-28T01:26:30.713Z,1018.43
2017-05-28T01:27:30.755Z,1018.4
2017-05-28T01:28:30.787Z,1018.41
2017-05-28T01:29:30.818Z,1018.4
2017-05-28T01:30:30.862Z,1018.44
2017-05-28T01:31:30.894Z,1018.45
2017-05-28T01:32:30.922Z,1018.46
2017-05-28T01:33:30.966Z,1018.41
2017-05-28T01:34:31.001Z,1018.41
2017-05-28T01:35:31.036Z,1018.41
2017-05-28T01:36:31.059Z,1018.41
2017-05-28T01:37:31.106Z,1018.37
2017-05-28T01:38:31.136Z,1018.34
2017-05-28T01:39:31.169Z,1018.33
2017-05-28T01:40:31.210Z,1018.38
2017-05-28T01:41:31.239Z,1018.34
2017-05-28T01:42:31.277Z,1018.36
2017-05-28T01:43:31.313Z,1018.34
2017-05-28T01:44:31.371Z,1018.33
2017-05-28T01:45:31.379Z,1018.3
2017-05-28T01:46:31.417Z,1018.29
2017-05-28T01:47:31.446Z,1018.26
2017-05-28T01:48:31.481Z,1018.27
2017-05-28T01:49:31.520Z,1018.26
2017-05-28T01:50:31.538Z,1018.29
2017-05-28T01:51:31.594Z,1018.26
2017-05-28T01:52:31.623Z,1018.24
2017-05-28T01:53:31.653Z,1018.25
2017-05-28T01:54:31.676Z,1018.26
2017-05-28T01:55:31.929Z,1018.26
2017-05-28T01:56:31.758Z,1018.24
2017-05-28T01:57:31.794Z,1018.21
2017-05-28T01:58:31.818Z,1018.17
2017-05-28T01:59:31.865Z,1018.21
2017-05-28T02:00:31.897Z,1018.19
2017-05-28T02:01:31.932Z,1018.17
2017-05-28T02:02:31.975Z,1018.18
2017-05-28T02:03:32.002Z,1018.19
2017-05-28T02:04:32.034Z,1018.23
2017-05-28T02:05:32.071Z,1018.17
2017-05-28T02:06:32.101Z,1018.2
2017-05-28T02:07:32.128Z,1018.16
2017-05-28T02:08:32.172Z,1018.15
2017-05-28T02:09:32.206Z,1018.16
2017-05-28T02:10:32.248Z,1018.13
2017-05-28T02:11:32.275Z,1018.1
2017-05-28T02:12:32.311Z,1018.14
2017-05-28T02:13:32.347Z,1018.09
2017-05-28T02:14:32.384Z,1018.09
2017-05-28T02:15:32.415Z,1018.09
2017-05-28T02:16:32.439Z,1018.06
2017-05-28T02:17:32.486Z,1018.13
2017-05-28T02:18:32.518Z,1018.07
2017-05-28T02:19:32.553Z,1018.05
2017-05-28T02:20:32.587Z,1018.06
2017-05-28T02:21:32.622Z,1018.04
2017-05-28T02:22:32.649Z,1018.08
2017-05-28T02:23:32.690Z,1018.1
2017-05-28T02:24:32.723Z,1018.06
2017-05-28T02:25:32.758Z,1018.1
2017-05-28T02:26:32.792Z,1018.04
2017-05-28T02:27:32.829Z,1018.06
2017-05-28T02:28:32.860Z,1018.03
2017-05-28T02:29:32.895Z,1018.02
2017-05-28T02:30:32.930Z,1018
2017-05-28T02:31:33.017Z,1018.03
2017-05-28T02:32:32.990Z,1018.03
2017-05-28T02:33:33.031Z,1018
2017-05-28T02:34:33.066Z,1018.02
2017-05-28T02:35:33.099Z,1018
2017-05-28T02:36:33.134Z,1018.05
2017-05-28T02:37:33.175Z,1017.96
2017-05-28T02:38:33.204Z,1017.98
2017-05-28T02:39:33.236Z,1017.99
2017-05-28T02:40:33.496Z,1018
2017-05-28T02:41:33.922Z,1017.98
2017-05-28T02:42:33.341Z,1017.98
2017-05-28T02:43:33.380Z,1018
2017-05-28T02:44:33.660Z,1018.05
2017-05-28T02:45:33.442Z,1018.05
2017-05-28T02:46:33.477Z,1018.06
2017-05-28T02:47:33.514Z,1018.04
2017-05-28T02:48:33.546Z,1018.02
2017-05-28T02:49:33.579Z,1018
2017-05-28T02:50:33.613Z,1018.03
2017-05-28T02:51:33.651Z,1018.05
2017-05-28T02:52:33.891Z,1018.02
2017-05-28T02:53:33.717Z,1018.08
2017-05-28T02:54:33.750Z,1018.07
2017-05-28T02:55:33.785Z,1018.09
2017-05-28T02:56:33.862Z,1018.07
2017-05-28T02:57:33.854Z,1018.07
2017-05-28T02:58:33.889Z,1018.11
2017-05-28T02:59:33.924Z,1018.12
2017-05-28T03:00:33.940Z,1018.09
2017-05-28T03:01:33.987Z,1018.09
2017-05-28T03:02:34.029Z,1018.05
2017-05-28T03:03:34.055Z,1018.06
2017-05-28T03:04:34.094Z,1018.03
2017-05-28T03:05:34.126Z,1018.03
2017-05-28T03:06:34.163Z,1018.09
2017-05-28T03:07:34.191Z,1018.05
2017-05-28T03:08:34.229Z,1018.05
2017-05-28T03:09:34.260Z,1018.03
2017-05-28T03:10:34.294Z,1018.02
2017-05-28T03:11:34.330Z,1018.05
2017-05-28T03:12:34.363Z,1018.07
2017-05-28T03:13:34.397Z,1018.1
2017-05-28T03:14:34.433Z,1018.03
2017-05-28T03:15:34.463Z,1018.02
2017-05-28T03:16:34.498Z,1018.02
2017-05-28T03:17:34.535Z,1018.01
2017-05-28T03:18:34.570Z,1018.03
2017-05-28T03:19:34.589Z,1018.04
2017-05-28T03:20:34.638Z,1018.02
2017-05-28T03:21:34.672Z,1018.08
2017-05-28T03:22:34.689Z,1018.03
2017-05-28T03:23:34.740Z,1018.06
2017-05-28T03:24:34.772Z,1018.02
2017-05-28T03:25:34.805Z,1017.95
2017-05-28T03:26:34.833Z,1017.97
2017-05-28T03:27:34.874Z,1017.95
2017-05-28T03:28:34.905Z,1017.92
2017-05-28T03:29:35.000Z,1017.93
2017-05-28T03:30:34.974Z,1017.94
2017-05-28T03:31:35.007Z,1017.94
2017-05-28T03:32:35.041Z,1017.96
2017-05-28T03:33:35.076Z,1017.97
2017-05-28T03:34:35.098Z,1018.02
2017-05-28T03:35:35.145Z,1018
2017-05-28T03:36:35.179Z,1017.94
2017-05-28T03:37:35.202Z,1017.92
2017-05-28T03:38:35.251Z,1017.87
2017-05-28T03:39:35.279Z,1017.86
2017-05-28T03:40:35.313Z,1017.86
2017-05-28T03:41:35.349Z,1017.85
2017-05-28T03:42:35.382Z,1017.87
2017-05-28T03:43:35.416Z,1017.89
2017-05-28T03:44:35.451Z,1017.86
2017-05-28T03:45:35.482Z,1017.89
2017-05-28T03:46:35.519Z,1017.89
2017-05-28T03:47:35.543Z,1017.86
2017-05-28T03:48:35.587Z,1017.86
2017-05-28T03:49:35.620Z,1017.82
2017-05-28T03:50:35.653Z,1017.85
2017-05-28T03:51:35.689Z,1017.82
2017-05-28T03:52:35.719Z,1017.87
2017-05-28T03:53:35.754Z,1017.83
2017-05-28T03:54:35.788Z,1017.86
2017-05-28T03:55:35.825Z,1017.84
2017-05-28T03:56:35.857Z,1017.86
2017-05-28T03:57:35.891Z,1017.84
2017-05-28T03:58:35.924Z,1017.84
2017-05-28T03:59:35.959Z,1017.88
2017-05-28T04:00:36.009Z,1017.89
2017-05-28T04:01:36.138Z,1017.95
2017-05-28T04:02:36.075Z,1017.88
2017-05-28T04:03:36.110Z,1017.88
2017-05-28T04:04:36.142Z,1017.9
2017-05-28T04:05:36.178Z,1017.88
2017-05-28T04:06:36.208Z,1017.92
2017-05-28T04:07:36.242Z,1017.91
2017-05-28T04:08:36.277Z,1017.96
2017-05-28T04:09:36.310Z,1017.93
2017-05-28T04:10:36.343Z,1017.93
2017-05-28T04:11:36.378Z,1017.91
2017-05-28T04:12:36.415Z,1017.97
2017-05-28T04:13:36.445Z,1018.02
2017-05-28T04:14:36.483Z,1018.09
2017-05-28T04:15:36.511Z,1018.11
2017-05-28T04:16:36.552Z,1018.15
2017-05-28T04:17:36.564Z,1018.25
2017-05-28T04:18:36.608Z,1018.35
2017-05-28T04:19:36.651Z,1018.49
2017-05-28T04:20:36.684Z,1018.59
2017-05-28T04:21:36.711Z,1018.63
2017-05-28T04:22:36.754Z,1018.52
2017-05-28T04:23:36.792Z,1018.35
2017-05-28T04:24:36.807Z,1018.14
2017-05-28T04:25:36.868Z,1017.91
2017-05-28T04:26:36.896Z,1017.93
2017-05-28T04:27:36.919Z,1017.86
2017-05-28T04:28:36.968Z,1017.85
2017-05-28T04:29:37.010Z,1017.86
2017-05-28T04:30:37.043Z,1017.91
2017-05-28T04:31:37.080Z,1017.87
2017-05-28T04:32:37.120Z,1017.85
2017-05-28T04:33:37.152Z,1017.82
2017-05-28T04:34:37.196Z,1017.83
2017-05-28T04:35:37.204Z,1017.84
2017-05-28T04:36:37.264Z,1017.87
2017-05-28T04:37:37.298Z,1017.87
2017-05-28T04:38:37.320Z,1017.81
2017-05-28T04:39:37.372Z,1017.84
2017-05-28T04:40:37.404Z,1017.78
2017-05-28T04:41:37.444Z,1017.82
2017-05-28T04:42:37.458Z,1017.78
2017-05-28T04:43:37.515Z,1017.81
2017-05-28T04:44:37.553Z,1017.8
2017-05-28T04:45:37.586Z,1017.78
2017-05-28T04:46:37.624Z,1017.77
2017-05-28T04:47:37.660Z,1017.78
2017-05-28T04:48:37.696Z,1017.8
2017-05-28T04:49:37.728Z,1017.79
2017-05-28T04:50:37.768Z,1017.75
2017-05-28T04:51:37.807Z,1017.76
2017-05-28T04:52:37.841Z,1017.73
2017-05-28T04:53:37.869Z,1017.77
2017-05-28T04:54:37.910Z,1017.78
2017-05-28T04:55:37.945Z,1017.78
2017-05-28T04:56:37.980Z,1017.81
2017-05-28T04:57:38.317Z,1017.73
2017-05-28T04:58:38.059Z,1017.68
2017-05-28T04:59:38.086Z,1017.73
2017-05-28T05:00:38.119Z,1017.7
2017-05-28T05:01:38.139Z,1017.72
2017-05-28T05:02:38.196Z,1017.71
2017-05-28T05:03:38.210Z,1017.68
2017-05-28T05:04:38.264Z,1017.71
2017-05-28T05:05:38.306Z,1017.74
2017-05-28T05:06:38.322Z,1017.74
2017-05-28T05:07:38.353Z,1017.7
2017-05-28T05:08:38.408Z,1017.72
2017-05-28T05:09:38.441Z,1017.69
2017-05-28T05:10:38.466Z,1017.74
2017-05-28T05:11:38.515Z,1017.76
2017-05-28T05:12:38.530Z,1017.71
2017-05-28T05:13:38.589Z,1017.79
2017-05-28T05:14:38.625Z,1017.84
2017-05-28T05:15:38.656Z,1017.81
2017-05-28T05:16:38.693Z,1017.73
2017-05-28T05:17:38.727Z,1017.7
2017-05-28T05:18:38.764Z,1017.69
2017-05-28T05:19:38.806Z,1017.75
2017-05-28T05:20:38.835Z,1017.71
2017-05-28T05:21:38.873Z,1017.74
2017-05-28T05:22:38.915Z,1017.81
2017-05-28T05:23:38.950Z,1017.75
2017-05-28T05:24:38.992Z,1017.88
2017-05-28T05:25:39.023Z,1017.94
2017-05-28T05:26:39.060Z,1017.92
2017-05-28T05:27:39.096Z,1017.95
2017-05-28T05:28:39.133Z,1017.93
2017-05-28T05:29:39.168Z,1017.95
2017-05-28T05:30:39.209Z,1017.95
2017-05-28T05:31:39.246Z,1017.98
2017-05-28T05:32:39.282Z,1017.95
2017-05-28T05:33:39.317Z,1017.86
2017-05-28T05:34:39.342Z,1017.91
2017-05-28T05:35:39.393Z,1017.87
2017-05-28T05:36:39.430Z,1017.91
2017-05-28T05:37:39.464Z,1017.89
2017-05-28T05:38:39.498Z,1017.84
2017-05-28T05:39:39.544Z,1017.84
2017-05-28T05:40:39.579Z,1017.87
2017-05-28T05:41:39.622Z,1017.86
2017-05-28T05:42:39.652Z,1017.82
2017-05-28T05:43:39.695Z,1017.83
2017-05-28T05:44:39.737Z,1017.86
2017-05-28T05:45:39.771Z,1017.86
2017-05-28T05:46:39.813Z,1017.85
2017-05-28T05:47:39.860Z,1017.9
2017-05-28T05:48:39.889Z,1017.84
2017-05-28T05:49:39.931Z,1017.84
2017-05-28T05:50:39.966Z,1017.81
2017-05-28T05:51:40.002Z,1017.83
2017-05-28T05:52:40.042Z,1017.84
2017-05-28T05:53:40.178Z,1017.87
2017-05-28T05:54:40.116Z,1017.84
2017-05-28T05:55:40.154Z,1017.88
2017-05-28T05:56:40.191Z,1017.89
2017-05-28T05:57:40.296Z,1017.85
2017-05-28T05:58:40.271Z,1017.89
2017-05-28T05:59:40.313Z,1017.9
2017-05-28T06:00:40.348Z,1017.9
2017-05-28T06:01:40.385Z,1017.89
2017-05-28T06:02:40.424Z,1017.9
2017-05-28T06:03:40.444Z,1017.92
2017-05-28T06:04:40.484Z,1017.98
2017-05-28T06:05:40.537Z,1018.01
2017-05-28T06:06:40.577Z,1018.02
2017-05-28T06:07:40.616Z,1018.11
2017-05-28T06:08:40.653Z,1018.17
2017-05-28T06:09:40.691Z,1018.19
2017-05-28T06:10:40.731Z,1018.18
2017-05-28T06:11:40.769Z,1018.24
2017-05-28T06:12:40.805Z,1018.23
2017-05-28T06:13:40.851Z,1018.19
2017-05-28T06:14:40.883Z,1018.19
2017-05-28T06:15:40.923Z,1018.23
2017-05-28T06:16:40.964Z,1018.2
2017-05-28T06:17:41.007Z,1018.18
2017-05-28T06:18:41.050Z,1018.19
2017-05-28T06:19:41.086Z,1018.12
2017-05-28T06:20:41.126Z,1018.17
2017-05-28T06:21:41.144Z,1018.21
2017-05-28T06:22:41.207Z,1018.16
2017-05-28T06:23:41.247Z,1018.16
2017-05-28T06:24:41.289Z,1018.15
2017-05-28T06:25:41.342Z,1018.14
2017-05-28T06:26:41.374Z,1018.1
2017-05-28T06:27:41.417Z,1018.13
2017-05-28T06:28:41.459Z,1018.14
2017-05-28T06:29:41.502Z,1018.1
2017-05-28T06:30:41.544Z,1018.11
2017-05-28T06:31:41.589Z,1018.13
2017-05-28T06:32:41.628Z,1018.14
2017-05-28T06:33:41.658Z,1018.13
2017-05-28T06:34:41.717Z,1018.13
2017-05-28T06:35:41.758Z,1018.1
2017-05-28T06:36:41.785Z,1018.1
2017-05-28T06:37:41.852Z,1018.05
2017-05-28T06:38:41.888Z,1018.1
2017-05-28T06:39:41.937Z,1018.12
2017-05-28T06:40:41.987Z,1018.18
2017-05-28T06:41:42.007Z,1018.09
2017-05-28T06:42:42.068Z,1018.11
2017-05-28T06:43:42.118Z,1018.13
2017-05-28T06:44:42.160Z,1018.17
2017-05-28T06:45:42.208Z,1018.11
2017-05-28T06:46:42.249Z,1018.09
2017-05-28T06:47:42.296Z,1018.09
2017-05-28T06:48:42.347Z,1018.09
2017-05-28T06:49:42.382Z,1018.14
2017-05-28T06:50:42.433Z,1018.08
2017-05-28T06:51:42.479Z,1018.11
2017-05-28T06:52:42.526Z,1018.01
2017-05-28T06:53:42.566Z,1018.02
2017-05-28T06:54:42.715Z,1018.05
2017-05-28T06:55:42.667Z,1018
2017-05-28T06:56:42.707Z,1017.98
2017-05-28T06:57:42.753Z,1017.91
2017-05-28T06:58:42.801Z,1017.94
2017-05-28T06:59:42.847Z,1017.96
2017-05-28T07:00:42.894Z,1017.92
2017-05-28T07:01:42.942Z,1017.87
2017-05-28T07:02:43.189Z,1017.92
2017-05-28T07:03:43.035Z,1017.85
2017-05-28T07:04:43.083Z,1017.89
2017-05-28T07:05:43.130Z,1017.88
2017-05-28T07:06:43.164Z,1017.84
2017-05-28T07:07:43.223Z,1017.79
2017-05-28T07:08:43.269Z,1017.86
2017-05-28T07:09:43.313Z,1017.82
2017-05-28T07:10:43.366Z,1017.84
2017-05-28T07:11:43.408Z,1017.83
2017-05-28T07:12:43.456Z,1017.83
2017-05-28T07:13:43.509Z,1017.81
2017-05-28T07:14:43.554Z,1017.82
2017-05-28T07:15:43.599Z,1017.78
2017-05-28T07:16:43.643Z,1017.78
2017-05-28T07:17:43.692Z,1017.78
2017-05-28T07:18:43.741Z,1017.83
2017-05-28T07:19:43.775Z,1017.82
2017-05-28T07:20:43.833Z,1017.8
2017-05-28T07:21:43.882Z,1017.81
2017-05-28T07:22:43.922Z,1017.78
2017-05-28T07:23:43.979Z,1017.79
2017-05-28T07:24:44.025Z,1017.8
2017-05-28T07:25:44.078Z,1017.79
2017-05-28T07:26:44.121Z,1017.78
2017-05-28T07:27:44.162Z,1017.72
2017-05-28T07:28:44.221Z,1017.74
2017-05-28T07:29:44.266Z,1017.78
2017-05-28T07:30:44.317Z,1017.88
2017-05-28T07:31:44.365Z,1017.89
2017-05-28T07:32:44.408Z,1017.93
2017-05-28T07:33:44.465Z,1017.89
2017-05-28T07:34:44.505Z,1017.85
2017-05-28T07:35:44.555Z,1017.82
2017-05-28T07:36:44.586Z,1017.86
2017-05-28T07:37:44.652Z,1017.84
2017-05-28T07:38:44.697Z,1017.87
2017-05-28T07:39:44.749Z,1017.85
2017-05-28T07:40:44.792Z,1017.84
2017-05-28T07:41:44.847Z,1017.81
2017-05-28T07:42:44.872Z,1017.73
2017-05-28T07:43:44.945Z,1017.74
2017-05-28T07:44:44.986Z,1017.72
2017-05-28T07:45:45.024Z,1017.74
2017-05-28T07:46:45.096Z,1017.74
2017-05-28T07:47:45.134Z,1017.72
2017-05-28T07:48:45.184Z,1017.74
2017-05-28T07:49:45.221Z,1017.74
2017-05-28T07:50:45.287Z,1017.71
2017-05-28T07:51:45.330Z,1017.77
2017-05-28T07:52:45.386Z,1017.78
2017-05-28T07:53:45.431Z,1017.76
2017-05-28T07:54:45.480Z,1017.74
2017-05-28T07:55:45.531Z,1017.72
2017-05-28T07:56:45.578Z,1017.72
2017-05-28T07:57:45.629Z,1017.75
2017-05-28T07:58:45.680Z,1017.78
2017-05-28T07:59:45.722Z,1017.81
2017-05-28T08:00:45.775Z,1017.74
2017-05-28T08:01:45.821Z,1017.78
2017-05-28T08:02:45.878Z,1017.81
2017-05-28T08:03:45.924Z,1017.77
2017-05-28T08:04:45.972Z,1017.78
2017-05-28T08:05:46.025Z,1017.78
2017-05-28T08:06:46.069Z,1017.73
2017-05-28T08:07:46.117Z,1017.72
2017-05-28T08:08:46.170Z,1017.6
2017-05-28T08:09:46.218Z,1017.46
2017-05-28T08:10:46.270Z,1017.57
2017-05-28T08:11:46.297Z,1017.81
2017-05-28T08:12:46.371Z,1017.63
2017-05-28T08:13:46.416Z,1017.46
2017-05-28T08:14:46.451Z,1017.81
2017-05-28T08:15:46.517Z,1017.81
2017-05-28T08:16:46.566Z,1017.86
2017-05-28T08:17:46.618Z,1017.83
2017-05-28T08:18:46.647Z,1017.85
2017-05-28T08:19:46.697Z,1017.77
2017-05-28T08:20:46.761Z,1017.76
2017-05-28T08:21:46.796Z,1017.8
2017-05-28T08:22:46.863Z,1017.75
2017-05-28T08:23:46.891Z,1017.77
2017-05-28T08:24:46.959Z,1017.82
2017-05-28T08:25:46.998Z,1017.7
2017-05-28T08:26:47.060Z,1017.78
2017-05-28T08:27:47.108Z,1017.75
2017-05-28T08:28:47.162Z,1017.74
2017-05-28T08:29:47.197Z,1017.8
2017-05-28T08:30:47.264Z,1017.78
2017-05-28T08:31:47.307Z,1017.85
2017-05-28T08:32:47.358Z,1017.82
2017-05-28T08:33:47.406Z,1017.77
2017-05-28T08:34:47.459Z,1017.77
2017-05-28T08:35:47.499Z,1017.8
2017-05-28T08:36:47.566Z,1017.76
2017-05-28T08:37:47.608Z,1017.73
2017-05-28T08:38:47.663Z,1017.64
2017-05-28T08:39:47.698Z,1017.64
2017-05-28T08:40:47.765Z,1017.3
2017-05-28T08:41:47.817Z,1017.51
2017-05-28T08:42:47.867Z,1017.75
2017-05-28T08:43:47.922Z,1017.73
2017-05-28T08:44:47.971Z,1017.75
2017-05-28T08:45:48.021Z,1017.73
2017-05-28T08:46:48.076Z,1017.78
2017-05-28T08:47:48.126Z,1017.81
2017-05-28T08:48:48.177Z,1017.31
2017-05-28T08:49:48.224Z,1017.19
2017-05-28T08:50:48.276Z,1017.15
2017-05-28T08:51:48.328Z,1017.38
2017-05-28T08:52:48.380Z,1017.63
2017-05-28T08:53:48.428Z,1017.74
2017-05-28T08:54:48.485Z,1017.66
2017-05-28T08:55:48.533Z,1017.76
2017-05-28T08:56:48.588Z,1017.71
2017-05-28T08:57:48.631Z,1017.79
2017-05-28T08:58:48.665Z,1017.74
2017-05-28T08:59:48.737Z,1017.82
2017-05-28T09:00:48.786Z,1017.76
2017-05-28T09:01:48.838Z,1017.35
2017-05-28T09:02:48.891Z,1017.71
2017-05-28T09:03:48.925Z,1017.64
2017-05-28T09:04:48.975Z,1017.77
2017-05-28T09:05:49.042Z,1017.77
2017-05-28T09:06:49.132Z,1017.69
2017-05-28T09:07:49.143Z,1017.66
2017-05-28T09:08:49.200Z,1017.61
2017-05-28T09:09:49.246Z,1017.72
2017-05-28T09:10:49.298Z,1017.86
2017-05-28T09:11:49.353Z,1017.83
2017-05-28T09:12:49.381Z,1017.81
2017-05-28T09:13:49.454Z,1017.74
2017-05-28T09:14:49.505Z,1017.78
2017-05-28T09:15:49.562Z,1017.45
2017-05-28T09:16:49.595Z,1017.59
2017-05-28T09:17:49.664Z,1017.14
2017-05-28T09:18:49.720Z,1017.07
2017-05-28T09:19:49.767Z,1016.99
2017-05-28T09:20:49.818Z,1017.09
2017-05-28T09:21:49.857Z,1017.11
2017-05-28T09:22:49.925Z,1017.23
2017-05-28T09:23:49.974Z,1017.36
2017-05-28T09:24:50.022Z,1017.58
2017-05-28T09:25:50.074Z,1017.66
2017-05-28T09:26:50.128Z,1017.57
2017-05-28T09:27:50.181Z,1017.46
2017-05-28T09:28:50.231Z,1017.48
2017-05-28T09:29:50.280Z,1017.56
2017-05-28T09:30:50.308Z,1017.57
2017-05-28T09:31:50.378Z,1017.55
2017-05-28T09:32:50.431Z,1017.64
2017-05-28T09:33:50.482Z,1017.61
2017-05-28T09:34:50.534Z,1017.51
2017-05-28T09:35:50.583Z,1017.57
2017-05-28T09:36:50.638Z,1017.46
2017-05-28T09:37:50.673Z,1017.45
2017-05-28T09:38:50.746Z,1017.54
2017-05-28T09:39:50.795Z,1017.54
2017-05-28T09:40:50.851Z,1017.55
2017-05-28T09:41:50.902Z,1017.52
2017-05-28T09:42:50.953Z,1017.44
2017-05-28T09:43:51.009Z,1017.52
2017-05-28T09:44:51.059Z,1017.5
2017-05-28T09:45:51.108Z,1017.51
2017-05-28T09:46:51.162Z,1017.53
2017-05-28T09:47:51.198Z,1017.51
2017-05-28T09:48:51.272Z,1017.51
2017-05-28T09:49:51.321Z,1017.42
2017-05-28T09:50:51.382Z,1017.39
2017-05-28T09:51:51.435Z,1017.39
2017-05-28T09:52:51.498Z,1017.43
2017-05-28T09:53:51.542Z,1017.43
2017-05-28T09:54:51.600Z,1017.47
2017-05-28T09:55:51.632Z,1017.48
2017-05-28T09:56:51.707Z,1017.48
2017-05-28T09:57:51.823Z,1017.43
2017-05-28T09:58:51.811Z,1017.38
2017-05-28T09:59:51.867Z,1017.4
2017-05-28T10:00:51.922Z,1017.51
2017-05-28T10:01:51.978Z,1017.46
2017-05-28T10:02:52.035Z,1017.53
2017-05-28T10:03:52.088Z,1017.56
2017-05-28T10:04:52.144Z,1017.56
2017-05-28T10:05:52.203Z,1017.5
2017-05-28T10:06:52.249Z,1017.52
2017-05-28T10:07:52.312Z,1017.36
2017-05-28T10:08:52.363Z,1017.42
2017-05-28T10:09:52.402Z,1017.39
2017-05-28T10:10:52.469Z,1017.51
2017-05-28T10:11:52.503Z,1017.43
2017-05-28T10:12:52.577Z,1017.4
2017-05-28T10:13:52.635Z,1017.39
2017-05-28T10:14:52.689Z,1017.29
2017-05-28T10:15:52.742Z,1017.41
2017-05-28T10:16:52.798Z,1017.54
2017-05-28T10:17:52.849Z,1017.52
2017-05-28T10:18:52.910Z,1017.51
2017-05-28T10:19:52.935Z,1017.46
2017-05-28T10:20:53.009Z,1017.49
2017-05-28T10:21:53.060Z,1017.55
2017-05-28T10:22:53.095Z,1017.45
2017-05-28T10:23:53.162Z,1017.14
2017-05-28T10:24:53.217Z,1017.34
2017-05-28T10:25:53.271Z,1017.38
2017-05-28T10:26:53.324Z,1017.38
2017-05-28T10:27:53.377Z,1017.61
2017-05-28T10:28:53.424Z,1017.55
2017-05-28T10:29:53.474Z,1017.77
2017-05-28T10:30:53.522Z,1017.4
2017-05-28T10:31:53.573Z,1017.14
2017-05-28T10:32:53.621Z,1017.18
2017-05-28T10:33:53.674Z,1017.21
2017-05-28T10:34:53.710Z,1017.42
2017-05-28T10:35:53.774Z,1017.95
2017-05-28T10:36:53.817Z,1017.85
2017-05-28T10:37:53.874Z,1017.7
2017-05-28T10:38:53.915Z,1017.54
2017-05-28T10:39:53.968Z,1017.54
2017-05-28T10:40:53.996Z,1017.89
2017-05-28T10:41:54.060Z,1017.94
2017-05-28T10:42:54.110Z,1018.03
2017-05-28T10:43:54.157Z,1018.21
2017-05-28T10:44:54.204Z,1018.31
2017-05-28T10:45:54.255Z,1018.24
2017-05-28T10:46:54.300Z,1018.2
2017-05-28T10:47:54.338Z,1018.39
2017-05-28T10:48:54.391Z,1018.48
2017-05-28T10:49:54.440Z,1018.37
2017-05-28T10:50:54.482Z,1018.29
2017-05-28T10:51:54.531Z,1018.18
2017-05-28T10:52:54.582Z,1017.96
2017-05-28T10:53:54.611Z,1017.79
2017-05-28T10:54:54.672Z,1016.78
2017-05-28T10:55:54.714Z,1016.34
2017-05-28T10:56:54.765Z,1016.35
2017-05-28T10:57:54.817Z,1016.28
2017-05-28T10:58:54.853Z,1016.25
2017-05-28T10:59:54.901Z,1016.16
2017-05-28T11:00:54.942Z,1016.21
2017-05-28T11:01:54.971Z,1016.13
2017-05-28T11:02:55.052Z,1016.17
2017-05-28T11:03:55.082Z,1016.21
2017-05-28T11:04:55.131Z,1016.27
2017-05-28T11:05:55.175Z,1016.16
2017-05-28T11:06:55.212Z,1016.18
2017-05-28T11:07:55.261Z,1016.03
2017-05-28T11:08:55.314Z,1016.04
2017-05-28T11:09:55.349Z,1015.91
2017-05-28T11:10:55.395Z,1016.01
2017-05-28T11:11:55.441Z,1016.04
2017-05-28T11:12:55.485Z,1015.99
2017-05-28T11:13:55.534Z,1016.08
2017-05-28T11:14:55.572Z,1015.94
2017-05-28T11:15:55.619Z,1015.93
2017-05-28T11:16:55.663Z,1015.92
2017-05-28T11:17:55.711Z,1015.96
2017-05-28T11:18:55.752Z,1015.93
2017-05-28T11:19:55.801Z,1015.86
2017-05-28T11:20:55.842Z,1015.8
2017-05-28T11:21:55.883Z,1015.81
2017-05-28T11:22:55.929Z,1015.79
2017-05-28T11:23:55.976Z,1015.81
2017-05-28T11:24:56.017Z,1015.87
2017-05-28T11:25:56.042Z,1015.87
2017-05-28T11:26:56.106Z,1015.79
2017-05-28T11:27:56.152Z,1015.71
2017-05-28T11:28:56.179Z,1015.77
2017-05-28T11:29:56.242Z,1015.65
2017-05-28T11:30:56.280Z,1015.69
2017-05-28T11:31:56.309Z,1015.62
2017-05-28T11:32:56.371Z,1015.6
2017-05-28T11:33:56.416Z,1015.62
2017-05-28T11:34:56.461Z,1015.6
2017-05-28T11:35:56.505Z,1015.58
2017-05-28T11:36:56.537Z,1015.53
2017-05-28T11:37:56.589Z,1015.6
2017-05-28T11:38:56.635Z,1015.47
2017-05-28T11:39:56.671Z,1015.53
2017-05-28T11:40:56.716Z,1015.48
2017-05-28T11:41:56.762Z,1015.5
2017-05-28T11:42:56.803Z,1015.49
2017-05-28T11:43:56.848Z,1015.56
2017-05-28T11:44:56.892Z,1015.48
2017-05-28T11:45:56.932Z,1015.61
2017-05-28T11:46:56.977Z,1015.54
2017-05-28T11:47:57.016Z,1015.44
2017-05-28T11:48:57.063Z,1015.47
2017-05-28T11:49:57.108Z,1015.42
2017-05-28T11:50:57.141Z,1015.41
2017-05-28T11:51:57.196Z,1015.51
2017-05-28T11:52:57.237Z,1015.46
2017-05-28T11:53:57.279Z,1015.42
2017-05-28T11:54:57.307Z,1015.44
2017-05-28T11:55:57.368Z,1015.4
2017-05-28T11:56:57.404Z,1015.36
2017-05-28T11:57:57.452Z,1015.39
2017-05-28T11:58:57.497Z,1015.44
2017-05-28T11:59:57.532Z,1015.52
2017-05-28T12:00:57.578Z,1015.56
2017-05-28T12:01:57.620Z,1015.48
2017-05-28T12:02:57.668Z,1015.47
2017-05-28T12:03:57.710Z,1015.42
2017-05-28T12:04:57.751Z,1015.36
2017-05-28T12:05:57.803Z,1015.44
2017-05-28T12:06:57.841Z,1015.44
2017-05-28T12:07:57.874Z,1015.48
2017-05-28T12:08:57.920Z,1015.43